sensor_id;sensor_type;location;lat;lon;timestamp;P1;durP1;ratioP1;P2;durP2;ratioP2
75772;SDS011;64381;0.000;0.000;2023-12-29T00:00:15;6.10;;;2.63;;
75772;SDS011;64381;0.000;0.000;2023-12-29T00:02:41;10.67;;;2.87;;
75772;SDS011;64381;0.000;0.000;2023-12-29T00:05:06;6.07;;;2.67;;
75772;SDS011;64381;0.000;0.000;2023-12-29T00:07:32;5.87;;;2.57;;
75772;SDS011;64381;0.000;0.000;2023-12-29T00:09:57;6.17;;;2.53;;
75772;SDS011;64381;0.000;0.000;2023-12-29T00:12:22;7.77;;;2.57;;
75772;SDS011;64381;0.000;0.000;2023-12-29T00:14:47;6.73;;;2.57;;
75772;SDS011;64381;0.000;0.000;2023-12-29T00:17:13;7.10;;;2.70;;
75772;SDS011;64381;0.000;0.000;2023-12-29T00:19:38;6.67;;;2.63;;
75772;SDS011;64381;0.000;0.000;2023-12-29T00:22:03;7.27;;;2.97;;
75772;SDS011;64381;0.000;0.000;2023-12-29T00:24:29;6.75;;;2.70;;
75772;SDS011;64381;0.000;0.000;2023-12-29T00:26:55;6.38;;;2.67;;
75772;SDS011;64381;0.000;0.000;2023-12-29T00:29:20;6.40;;;2.83;;
75772;SDS011;64381;0.000;0.000;2023-12-29T00:31:45;6.53;;;3.10;;
75772;SDS011;64381;0.000;0.000;2023-12-29T00:34:10;6.33;;;2.70;;
75772;SDS011;64381;0.000;0.000;2023-12-29T00:36:36;5.83;;;2.70;;
75772;SDS011;64381;0.000;0.000;2023-12-29T00:39:01;5.30;;;2.40;;
75772;SDS011;64381;0.000;0.000;2023-12-29T00:41:26;4.87;;;2.47;;
75772;SDS011;64381;0.000;0.000;2023-12-29T00:43:51;6.60;;;2.63;;
75772;SDS011;64381;0.000;0.000;2023-12-29T00:46:16;6.30;;;2.67;;
75772;SDS011;64381;0.000;0.000;2023-12-29T00:48:42;6.67;;;2.40;;
75772;SDS011;64381;0.000;0.000;2023-12-29T00:51:07;7.17;;;2.80;;
75772;SDS011;64381;0.000;0.000;2023-12-29T00:53:34;5.23;;;2.60;;
75772;SDS011;64381;0.000;0.000;2023-12-29T00:56:00;5.78;;;2.20;;
75772;SDS011;64381;0.000;0.000;2023-12-29T00:58:25;7.13;;;2.43;;
75772;SDS011;64381;0.000;0.000;2023-12-29T01:00:50;6.20;;;2.50;;
75772;SDS011;64381;0.000;0.000;2023-12-29T01:03:15;5.90;;;2.43;;
75772;SDS011;64381;0.000;0.000;2023-12-29T01:05:41;5.80;;;2.47;;
75772;SDS011;64381;0.000;0.000;2023-12-29T01:08:06;5.83;;;2.40;;
75772;SDS011;64381;0.000;0.000;2023-12-29T01:10:31;5.60;;;2.40;;
75772;SDS011;64381;0.000;0.000;2023-12-29T01:12:56;6.63;;;2.20;;
75772;SDS011;64381;0.000;0.000;2023-12-29T01:15:21;4.60;;;1.80;;
75772;SDS011;64381;0.000;0.000;2023-12-29T01:17:47;5.80;;;2.30;;
75772;SDS011;64381;0.000;0.000;2023-12-29T01:20:12;5.13;;;2.13;;
75772;SDS011;64381;0.000;0.000;2023-12-29T01:22:37;5.60;;;2.20;;
75772;SDS011;64381;0.000;0.000;2023-12-29T01:25:02;5.27;;;2.30;;
75772;SDS011;64381;0.000;0.000;2023-12-29T01:27:28;7.47;;;2.57;;
75772;SDS011;64381;0.000;0.000;2023-12-29T01:29:54;5.85;;;2.25;;
75772;SDS011;64381;0.000;0.000;2023-12-29T01:32:19;4.73;;;2.40;;
75772;SDS011;64381;0.000;0.000;2023-12-29T01:34:44;7.30;;;2.77;;
75772;SDS011;64381;0.000;0.000;2023-12-29T01:37:10;6.33;;;2.00;;
75772;SDS011;64381;0.000;0.000;2023-12-29T01:39:35;5.83;;;2.10;;
75772;SDS011;64381;0.000;0.000;2023-12-29T01:42:00;5.07;;;2.00;;
75772;SDS011;64381;0.000;0.000;2023-12-29T01:44:25;5.00;;;2.20;;
75772;SDS011;64381;0.000;0.000;2023-12-29T01:46:52;5.60;;;2.35;;
75772;SDS011;64381;0.000;0.000;2023-12-29T01:49:19;5.28;;;2.20;;
75772;SDS011;64381;0.000;0.000;2023-12-29T01:51:46;4.33;;;2.13;;
75772;SDS011;64381;0.000;0.000;2023-12-29T01:54:14;4.97;;;2.00;;
75772;SDS011;64381;0.000;0.000;2023-12-29T01:56:40;4.75;;;2.00;;
75772;SDS011;64381;0.000;0.000;2023-12-29T01:59:06;5.43;;;2.43;;
75772;SDS011;64381;0.000;0.000;2023-12-29T02:01:31;4.83;;;1.87;;
75772;SDS011;64381;0.000;0.000;2023-12-29T02:03:56;4.43;;;2.00;;
75772;SDS011;64381;0.000;0.000;2023-12-29T02:06:22;4.63;;;2.20;;
75772;SDS011;64381;0.000;0.000;2023-12-29T02:08:48;4.78;;;1.88;;
75772;SDS011;64381;0.000;0.000;2023-12-29T02:11:14;5.13;;;1.90;;
75772;SDS011;64381;0.000;0.000;2023-12-29T02:13:39;4.93;;;2.10;;
75772;SDS011;64381;0.000;0.000;2023-12-29T02:16:09;4.07;;;1.90;;
75772;SDS011;64381;0.000;0.000;2023-12-29T02:18:39;6.10;;;1.95;;
75772;SDS011;64381;0.000;0.000;2023-12-29T02:21:09;4.63;;;1.90;;
75772;SDS011;64381;0.000;0.000;2023-12-29T02:23:34;4.67;;;1.87;;
75772;SDS011;64381;0.000;0.000;2023-12-29T02:26:01;4.57;;;2.13;;
75772;SDS011;64381;0.000;0.000;2023-12-29T02:28:30;4.88;;;1.80;;
75772;SDS011;64381;0.000;0.000;2023-12-29T02:31:01;5.03;;;1.75;;
75772;SDS011;64381;0.000;0.000;2023-12-29T02:33:48;5.28;;;1.95;;
75772;SDS011;64381;0.000;0.000;2023-12-29T02:36:15;3.78;;;1.90;;
75772;SDS011;64381;0.000;0.000;2023-12-29T02:38:41;5.60;;;1.90;;
75772;SDS011;64381;0.000;0.000;2023-12-29T02:41:07;5.27;;;1.90;;
75772;SDS011;64381;0.000;0.000;2023-12-29T02:43:32;4.53;;;1.60;;
75772;SDS011;64381;0.000;0.000;2023-12-29T02:45:57;4.43;;;1.90;;
75772;SDS011;64381;0.000;0.000;2023-12-29T02:48:22;4.60;;;2.00;;
75772;SDS011;64381;0.000;0.000;2023-12-29T02:50:48;4.23;;;1.77;;
75772;SDS011;64381;0.000;0.000;2023-12-29T02:53:13;4.97;;;1.83;;
75772;SDS011;64381;0.000;0.000;2023-12-29T02:55:38;4.47;;;1.77;;
75772;SDS011;64381;0.000;0.000;2023-12-29T02:58:03;4.43;;;1.90;;
75772;SDS011;64381;0.000;0.000;2023-12-29T03:00:28;5.03;;;1.80;;
75772;SDS011;64381;0.000;0.000;2023-12-29T03:02:54;3.90;;;1.90;;
75772;SDS011;64381;0.000;0.000;2023-12-29T03:05:19;3.73;;;1.73;;
75772;SDS011;64381;0.000;0.000;2023-12-29T03:07:44;4.27;;;1.80;;
75772;SDS011;64381;0.000;0.000;2023-12-29T03:10:09;4.40;;;1.73;;
75772;SDS011;64381;0.000;0.000;2023-12-29T03:12:34;4.50;;;1.90;;
75772;SDS011;64381;0.000;0.000;2023-12-29T03:15:00;5.10;;;2.00;;
75772;SDS011;64381;0.000;0.000;2023-12-29T03:17:25;4.60;;;1.90;;
75772;SDS011;64381;0.000;0.000;2023-12-29T03:19:50;4.43;;;2.07;;
75772;SDS011;64381;0.000;0.000;2023-12-29T03:22:17;4.32;;;1.83;;
75772;SDS011;64381;0.000;0.000;2023-12-29T03:24:42;4.53;;;1.97;;
75772;SDS011;64381;0.000;0.000;2023-12-29T03:27:08;4.83;;;1.97;;
75772;SDS011;64381;0.000;0.000;2023-12-29T03:29:33;3.90;;;1.53;;
75772;SDS011;64381;0.000;0.000;2023-12-29T03:31:58;4.30;;;1.87;;
75772;SDS011;64381;0.000;0.000;2023-12-29T03:34:24;4.87;;;1.97;;
75772;SDS011;64381;0.000;0.000;2023-12-29T03:36:49;5.10;;;2.00;;
75772;SDS011;64381;0.000;0.000;2023-12-29T03:39:14;4.87;;;2.10;;
75772;SDS011;64381;0.000;0.000;2023-12-29T03:41:39;4.10;;;2.03;;
75772;SDS011;64381;0.000;0.000;2023-12-29T03:44:04;3.70;;;1.80;;
75772;SDS011;64381;0.000;0.000;2023-12-29T03:46:30;4.27;;;1.70;;
75772;SDS011;64381;0.000;0.000;2023-12-29T03:48:55;3.80;;;1.67;;
75772;SDS011;64381;0.000;0.000;2023-12-29T03:51:20;3.97;;;1.80;;
75772;SDS011;64381;0.000;0.000;2023-12-29T03:53:45;4.43;;;1.80;;
75772;SDS011;64381;0.000;0.000;2023-12-29T03:56:17;4.60;;;1.60;;
75772;SDS011;64381;0.000;0.000;2023-12-29T03:58:43;4.13;;;1.95;;
75772;SDS011;64381;0.000;0.000;2023-12-29T04:01:09;3.77;;;1.77;;
75772;SDS011;64381;0.000;0.000;2023-12-29T04:03:35;4.07;;;1.87;;
75772;SDS011;64381;0.000;0.000;2023-12-29T04:06:00;4.07;;;1.60;;
75772;SDS011;64381;0.000;0.000;2023-12-29T04:08:26;4.40;;;1.57;;
75772;SDS011;64381;0.000;0.000;2023-12-29T04:10:51;3.63;;;1.63;;
75772;SDS011;64381;0.000;0.000;2023-12-29T04:13:16;3.80;;;1.67;;
75772;SDS011;64381;0.000;0.000;2023-12-29T04:15:41;3.40;;;1.63;;
75772;SDS011;64381;0.000;0.000;2023-12-29T04:18:06;3.70;;;1.70;;
75772;SDS011;64381;0.000;0.000;2023-12-29T04:20:32;3.60;;;1.83;;
75772;SDS011;64381;0.000;0.000;2023-12-29T04:22:57;3.87;;;1.70;;
75772;SDS011;64381;0.000;0.000;2023-12-29T04:25:22;3.83;;;1.80;;
75772;SDS011;64381;0.000;0.000;2023-12-29T04:27:47;3.93;;;1.53;;
75772;SDS011;64381;0.000;0.000;2023-12-29T04:30:12;4.20;;;1.70;;
75772;SDS011;64381;0.000;0.000;2023-12-29T04:32:38;4.20;;;1.73;;
75772;SDS011;64381;0.000;0.000;2023-12-29T04:35:03;4.23;;;1.60;;
75772;SDS011;64381;0.000;0.000;2023-12-29T04:37:28;3.30;;;1.30;;
75772;SDS011;64381;0.000;0.000;2023-12-29T04:39:54;3.37;;;1.60;;
75772;SDS011;64381;0.000;0.000;2023-12-29T04:42:19;3.67;;;1.77;;
75772;SDS011;64381;0.000;0.000;2023-12-29T04:44:44;3.60;;;1.30;;
75772;SDS011;64381;0.000;0.000;2023-12-29T04:47:10;4.40;;;1.73;;
75772;SDS011;64381;0.000;0.000;2023-12-29T04:49:35;4.50;;;1.80;;
75772;SDS011;64381;0.000;0.000;2023-12-29T04:52:00;3.80;;;1.70;;
75772;SDS011;64381;0.000;0.000;2023-12-29T04:54:25;3.90;;;1.60;;
75772;SDS011;64381;0.000;0.000;2023-12-29T04:56:51;3.87;;;1.60;;
75772;SDS011;64381;0.000;0.000;2023-12-29T04:59:16;4.00;;;1.50;;
75772;SDS011;64381;0.000;0.000;2023-12-29T05:01:41;3.67;;;1.53;;
75772;SDS011;64381;0.000;0.000;2023-12-29T05:04:06;3.50;;;1.53;;
75772;SDS011;64381;0.000;0.000;2023-12-29T05:06:32;3.87;;;1.80;;
75772;SDS011;64381;0.000;0.000;2023-12-29T05:08:57;4.07;;;1.60;;
75772;SDS011;64381;0.000;0.000;2023-12-29T05:11:22;3.20;;;1.33;;
75772;SDS011;64381;0.000;0.000;2023-12-29T05:13:47;3.90;;;1.63;;
75772;SDS011;64381;0.000;0.000;2023-12-29T05:16:13;3.70;;;1.70;;
75772;SDS011;64381;0.000;0.000;2023-12-29T05:18:38;3.47;;;1.30;;
75772;SDS011;64381;0.000;0.000;2023-12-29T05:21:03;3.60;;;1.43;;
75772;SDS011;64381;0.000;0.000;2023-12-29T05:23:28;3.70;;;1.47;;
75772;SDS011;64381;0.000;0.000;2023-12-29T05:25:54;3.17;;;1.47;;
75772;SDS011;64381;0.000;0.000;2023-12-29T05:28:19;3.80;;;1.63;;
75772;SDS011;64381;0.000;0.000;2023-12-29T05:30:44;3.77;;;1.40;;
75772;SDS011;64381;0.000;0.000;2023-12-29T05:33:09;3.17;;;1.37;;
75772;SDS011;64381;0.000;0.000;2023-12-29T05:35:34;3.60;;;1.37;;
75772;SDS011;64381;0.000;0.000;2023-12-29T05:38:00;3.87;;;1.50;;
75772;SDS011;64381;0.000;0.000;2023-12-29T05:40:25;3.47;;;1.67;;
75772;SDS011;64381;0.000;0.000;2023-12-29T05:42:50;3.40;;;1.40;;
75772;SDS011;64381;0.000;0.000;2023-12-29T05:45:16;4.97;;;1.77;;
75772;SDS011;64381;0.000;0.000;2023-12-29T05:47:41;2.85;;;1.33;;
75772;SDS011;64381;0.000;0.000;2023-12-29T05:50:07;3.93;;;1.40;;
75772;SDS011;64381;0.000;0.000;2023-12-29T05:52:32;3.13;;;1.40;;
75772;SDS011;64381;0.000;0.000;2023-12-29T05:54:57;3.03;;;1.40;;
75772;SDS011;64381;0.000;0.000;2023-12-29T05:57:23;3.40;;;1.60;;
75772;SDS011;64381;0.000;0.000;2023-12-29T05:59:48;3.93;;;1.40;;
75772;SDS011;64381;0.000;0.000;2023-12-29T06:02:13;3.30;;;1.40;;
75772;SDS011;64381;0.000;0.000;2023-12-29T06:04:38;3.33;;;1.40;;
75772;SDS011;64381;0.000;0.000;2023-12-29T06:07:03;3.10;;;1.50;;
75772;SDS011;64381;0.000;0.000;2023-12-29T06:09:29;3.10;;;1.40;;
75772;SDS011;64381;0.000;0.000;2023-12-29T06:11:54;3.63;;;1.60;;
75772;SDS011;64381;0.000;0.000;2023-12-29T06:14:19;3.57;;;1.60;;
75772;SDS011;64381;0.000;0.000;2023-12-29T06:16:44;3.27;;;1.40;;
75772;SDS011;64381;0.000;0.000;2023-12-29T06:19:09;3.40;;;1.50;;
75772;SDS011;64381;0.000;0.000;2023-12-29T06:21:40;3.60;;;1.60;;
75772;SDS011;64381;0.000;0.000;2023-12-29T06:24:06;2.85;;;1.40;;
75772;SDS011;64381;0.000;0.000;2023-12-29T06:26:31;4.20;;;1.20;;
75772;SDS011;64381;0.000;0.000;2023-12-29T06:28:56;3.20;;;1.40;;
75772;SDS011;64381;0.000;0.000;2023-12-29T06:33:49;3.03;;;1.50;;
75772;SDS011;64381;0.000;0.000;2023-12-29T06:36:15;3.03;;;1.30;;
75772;SDS011;64381;0.000;0.000;2023-12-29T06:38:40;3.27;;;1.50;;
75772;SDS011;64381;0.000;0.000;2023-12-29T06:41:05;2.90;;;1.33;;
75772;SDS011;64381;0.000;0.000;2023-12-29T06:43:30;3.10;;;1.50;;
75772;SDS011;64381;0.000;0.000;2023-12-29T06:45:56;3.27;;;1.40;;
75772;SDS011;64381;0.000;0.000;2023-12-29T06:48:21;2.80;;;1.30;;
75772;SDS011;64381;0.000;0.000;2023-12-29T06:50:47;3.30;;;1.30;;
75772;SDS011;64381;0.000;0.000;2023-12-29T06:53:12;3.30;;;1.37;;
75772;SDS011;64381;0.000;0.000;2023-12-29T06:55:37;3.20;;;1.37;;
75772;SDS011;64381;0.000;0.000;2023-12-29T06:58:04;2.90;;;1.30;;
75772;SDS011;64381;0.000;0.000;2023-12-29T07:00:29;3.83;;;1.38;;
75772;SDS011;64381;0.000;0.000;2023-12-29T07:02:54;3.20;;;1.40;;
75772;SDS011;64381;0.000;0.000;2023-12-29T07:05:20;3.57;;;1.20;;
75772;SDS011;64381;0.000;0.000;2023-12-29T07:07:45;2.90;;;1.30;;
75772;SDS011;64381;0.000;0.000;2023-12-29T07:10:13;2.60;;;1.10;;
75772;SDS011;64381;0.000;0.000;2023-12-29T07:12:39;3.30;;;1.30;;
75772;SDS011;64381;0.000;0.000;2023-12-29T07:15:05;3.00;;;1.30;;
75772;SDS011;64381;0.000;0.000;2023-12-29T07:17:31;3.00;;;1.20;;
75772;SDS011;64381;0.000;0.000;2023-12-29T07:19:56;3.43;;;1.37;;
75772;SDS011;64381;0.000;0.000;2023-12-29T07:22:21;3.17;;;1.20;;
75772;SDS011;64381;0.000;0.000;2023-12-29T07:24:46;3.70;;;1.30;;
75772;SDS011;64381;0.000;0.000;2023-12-29T07:27:11;3.37;;;1.30;;
75772;SDS011;64381;0.000;0.000;2023-12-29T07:29:37;2.70;;;1.20;;
75772;SDS011;64381;0.000;0.000;2023-12-29T07:32:02;2.90;;;1.20;;
75772;SDS011;64381;0.000;0.000;2023-12-29T07:34:27;3.77;;;1.40;;
75772;SDS011;64381;0.000;0.000;2023-12-29T07:36:52;3.43;;;1.30;;
75772;SDS011;64381;0.000;0.000;2023-12-29T07:39:17;3.10;;;1.30;;
75772;SDS011;64381;0.000;0.000;2023-12-29T07:41:43;2.90;;;1.30;;
75772;SDS011;64381;0.000;0.000;2023-12-29T07:44:11;3.00;;;1.20;;
75772;SDS011;64381;0.000;0.000;2023-12-29T07:46:37;3.20;;;1.40;;
75772;SDS011;64381;0.000;0.000;2023-12-29T07:49:02;2.80;;;1.20;;
75772;SDS011;64381;0.000;0.000;2023-12-29T07:51:28;3.10;;;1.23;;
75772;SDS011;64381;0.000;0.000;2023-12-29T07:53:53;3.10;;;1.37;;
75772;SDS011;64381;0.000;0.000;2023-12-29T07:56:18;3.40;;;1.40;;
75772;SDS011;64381;0.000;0.000;2023-12-29T07:58:43;3.10;;;1.30;;
75772;SDS011;64381;0.000;0.000;2023-12-29T08:01:09;3.03;;;1.33;;
75772;SDS011;64381;0.000;0.000;2023-12-29T08:03:34;3.40;;;1.40;;
75772;SDS011;64381;0.000;0.000;2023-12-29T08:05:59;3.00;;;1.30;;
75772;SDS011;64381;0.000;0.000;2023-12-29T08:08:24;3.17;;;1.53;;
75772;SDS011;64381;0.000;0.000;2023-12-29T08:10:49;3.17;;;1.00;;
75772;SDS011;64381;0.000;0.000;2023-12-29T08:13:15;3.20;;;1.40;;
75772;SDS011;64381;0.000;0.000;2023-12-29T08:15:40;3.10;;;1.30;;
75772;SDS011;64381;0.000;0.000;2023-12-29T08:18:05;3.03;;;1.30;;
75772;SDS011;64381;0.000;0.000;2023-12-29T08:20:30;2.90;;;1.30;;
75772;SDS011;64381;0.000;0.000;2023-12-29T08:22:56;2.60;;;1.10;;
75772;SDS011;64381;0.000;0.000;2023-12-29T08:25:21;3.13;;;1.37;;
75772;SDS011;64381;0.000;0.000;2023-12-29T08:27:46;2.80;;;1.27;;
75772;SDS011;64381;0.000;0.000;2023-12-29T08:30:11;4.00;;;1.30;;
75772;SDS011;64381;0.000;0.000;2023-12-29T08:32:37;2.78;;;1.10;;
75772;SDS011;64381;0.000;0.000;2023-12-29T08:35:02;2.77;;;1.23;;
75772;SDS011;64381;0.000;0.000;2023-12-29T08:37:28;2.80;;;1.10;;
75772;SDS011;64381;0.000;0.000;2023-12-29T08:39:54;2.90;;;1.13;;
75772;SDS011;64381;0.000;0.000;2023-12-29T08:42:21;2.90;;;1.20;;
75772;SDS011;64381;0.000;0.000;2023-12-29T08:44:46;3.17;;;1.30;;
75772;SDS011;64381;0.000;0.000;2023-12-29T08:47:12;3.03;;;1.17;;
75772;SDS011;64381;0.000;0.000;2023-12-29T08:49:37;3.10;;;1.30;;
75772;SDS011;64381;0.000;0.000;2023-12-29T08:52:03;3.20;;;1.20;;
75772;SDS011;64381;0.000;0.000;2023-12-29T08:54:28;2.95;;;1.20;;
75772;SDS011;64381;0.000;0.000;2023-12-29T08:56:54;2.90;;;1.10;;
75772;SDS011;64381;0.000;0.000;2023-12-29T08:59:19;2.83;;;1.10;;
75772;SDS011;64381;0.000;0.000;2023-12-29T09:01:44;2.90;;;1.20;;
75772;SDS011;64381;0.000;0.000;2023-12-29T09:04:09;2.60;;;1.10;;
75772;SDS011;64381;0.000;0.000;2023-12-29T09:06:35;3.27;;;1.20;;
75772;SDS011;64381;0.000;0.000;2023-12-29T09:09:00;2.60;;;1.10;;
75772;SDS011;64381;0.000;0.000;2023-12-29T09:11:25;3.00;;;1.40;;
75772;SDS011;64381;0.000;0.000;2023-12-29T09:13:50;3.10;;;1.30;;
75772;SDS011;64381;0.000;0.000;2023-12-29T09:16:15;2.77;;;1.07;;
75772;SDS011;64381;0.000;0.000;2023-12-29T09:18:41;3.10;;;1.30;;
75772;SDS011;64381;0.000;0.000;2023-12-29T09:21:06;3.50;;;1.40;;
75772;SDS011;64381;0.000;0.000;2023-12-29T09:23:31;2.87;;;1.10;;
75772;SDS011;64381;0.000;0.000;2023-12-29T09:25:56;3.17;;;1.20;;
75772;SDS011;64381;0.000;0.000;2023-12-29T09:28:21;2.90;;;1.20;;
75772;SDS011;64381;0.000;0.000;2023-12-29T09:30:47;3.00;;;1.10;;
75772;SDS011;64381;0.000;0.000;2023-12-29T09:33:12;2.90;;;1.20;;
75772;SDS011;64381;0.000;0.000;2023-12-29T09:35:37;2.80;;;1.20;;
75772;SDS011;64381;0.000;0.000;2023-12-29T09:38:03;2.77;;;1.10;;
75772;SDS011;64381;0.000;0.000;2023-12-29T09:40:28;2.95;;;1.20;;
75772;SDS011;64381;0.000;0.000;2023-12-29T09:42:53;2.40;;;1.10;;
75772;SDS011;64381;0.000;0.000;2023-12-29T09:45:20;2.80;;;1.20;;
75772;SDS011;64381;0.000;0.000;2023-12-29T09:47:48;2.90;;;1.30;;
75772;SDS011;64381;0.000;0.000;2023-12-29T09:50:16;2.83;;;1.10;;
75772;SDS011;64381;0.000;0.000;2023-12-29T09:52:42;2.80;;;1.10;;
75772;SDS011;64381;0.000;0.000;2023-12-29T09:55:08;2.50;;;1.00;;
75772;SDS011;64381;0.000;0.000;2023-12-29T09:57:34;3.10;;;1.10;;
75772;SDS011;64381;0.000;0.000;2023-12-29T09:59:59;2.70;;;1.20;;
75772;SDS011;64381;0.000;0.000;2023-12-29T10:02:25;2.63;;;1.00;;
75772;SDS011;64381;0.000;0.000;2023-12-29T10:04:50;2.70;;;1.00;;
75772;SDS011;64381;0.000;0.000;2023-12-29T10:07:20;3.17;;;1.30;;
75772;SDS011;64381;0.000;0.000;2023-12-29T10:09:50;2.90;;;1.07;;
75772;SDS011;64381;0.000;0.000;2023-12-29T10:12:19;2.60;;;1.00;;
75772;SDS011;64381;0.000;0.000;2023-12-29T10:14:48;2.70;;;1.15;;
75772;SDS011;64381;0.000;0.000;2023-12-29T10:17:21;3.20;;;1.20;;
75772;SDS011;64381;0.000;0.000;2023-12-29T10:19:58;3.10;;;1.40;;
75772;SDS011;64381;0.000;0.000;2023-12-29T10:22:46;2.60;;;0.97;;
75772;SDS011;64381;0.000;0.000;2023-12-29T10:25:16;2.47;;;0.98;;
75772;SDS011;64381;0.000;0.000;2023-12-29T10:27:42;2.97;;;1.10;;
75772;SDS011;64381;0.000;0.000;2023-12-29T10:30:09;2.93;;;1.30;;
75772;SDS011;64381;0.000;0.000;2023-12-29T10:32:35;2.78;;;1.10;;
75772;SDS011;64381;0.000;0.000;2023-12-29T10:35:10;2.70;;;1.03;;
75772;SDS011;64381;0.000;0.000;2023-12-29T10:37:37;2.80;;;1.20;;
75772;SDS011;64381;0.000;0.000;2023-12-29T10:40:03;2.60;;;1.02;;
75772;SDS011;64381;0.000;0.000;2023-12-29T10:42:28;2.50;;;1.20;;
75772;SDS011;64381;0.000;0.000;2023-12-29T10:45:06;3.00;;;1.23;;
75772;SDS011;64381;0.000;0.000;2023-12-29T10:47:33;2.70;;;1.20;;
75772;SDS011;64381;0.000;0.000;2023-12-29T10:49:59;2.60;;;1.10;;
75772;SDS011;64381;0.000;0.000;2023-12-29T10:52:24;3.23;;;1.17;;
75772;SDS011;64381;0.000;0.000;2023-12-29T10:54:49;2.60;;;1.20;;
75772;SDS011;64381;0.000;0.000;2023-12-29T10:57:28;2.60;;;1.10;;
75772;SDS011;64381;0.000;0.000;2023-12-29T10:59:54;2.63;;;1.20;;
75772;SDS011;64381;0.000;0.000;2023-12-29T11:02:20;2.80;;;0.95;;
75772;SDS011;64381;0.000;0.000;2023-12-29T11:04:45;3.00;;;1.20;;
75772;SDS011;64381;0.000;0.000;2023-12-29T11:07:11;2.50;;;1.00;;
75772;SDS011;64381;0.000;0.000;2023-12-29T11:09:37;2.78;;;1.10;;
75772;SDS011;64381;0.000;0.000;2023-12-29T11:12:03;2.57;;;1.00;;
75772;SDS011;64381;0.000;0.000;2023-12-29T11:14:29;2.50;;;0.95;;
75772;SDS011;64381;0.000;0.000;2023-12-29T11:16:55;2.50;;;1.00;;
75772;SDS011;64381;0.000;0.000;2023-12-29T11:19:21;2.50;;;1.00;;
75772;SDS011;64381;0.000;0.000;2023-12-29T11:21:46;3.05;;;1.13;;
75772;SDS011;64381;0.000;0.000;2023-12-29T11:24:16;2.90;;;1.20;;
75772;SDS011;64381;0.000;0.000;2023-12-29T11:26:41;3.00;;;1.30;;
75772;SDS011;64381;0.000;0.000;2023-12-29T11:29:08;3.15;;;1.40;;
75772;SDS011;64381;0.000;0.000;2023-12-29T11:31:34;3.58;;;1.45;;
75772;SDS011;64381;0.000;0.000;2023-12-29T11:34:02;3.13;;;1.30;;
75772;SDS011;64381;0.000;0.000;2023-12-29T11:36:36;3.50;;;1.63;;
75772;SDS011;64381;0.000;0.000;2023-12-29T11:39:13;4.82;;;2.00;;
75772;SDS011;64381;0.000;0.000;2023-12-29T11:44:24;3.95;;;1.90;;
75772;SDS011;64381;0.000;0.000;2023-12-29T11:46:50;4.50;;;2.07;;
75772;SDS011;64381;0.000;0.000;2023-12-29T11:49:15;4.73;;;1.90;;
75772;SDS011;64381;0.000;0.000;2023-12-29T11:51:41;13.93;;;3.03;;
75772;SDS011;64381;0.000;0.000;2023-12-29T11:54:07;33.15;;;6.82;;
75772;SDS011;64381;0.000;0.000;2023-12-29T11:59:18;53.63;;;9.48;;
75772;SDS011;64381;0.000;0.000;2023-12-29T12:01:46;35.95;;;10.70;;
75772;SDS011;64381;0.000;0.000;2023-12-29T12:07:04;41.50;;;9.40;;
75772;SDS011;64381;0.000;0.000;2023-12-29T12:09:30;36.50;;;8.30;;
75772;SDS011;64381;0.000;0.000;2023-12-29T12:11:55;31.27;;;9.10;;
75772;SDS011;64381;0.000;0.000;2023-12-29T12:17:31;29.42;;;7.60;;
75772;SDS011;64381;0.000;0.000;2023-12-29T12:20:06;28.67;;;7.65;;
75772;SDS011;64381;0.000;0.000;2023-12-29T12:22:32;26.83;;;7.85;;
75772;SDS011;64381;0.000;0.000;2023-12-29T12:24:58;30.40;;;7.97;;
75772;SDS011;64381;0.000;0.000;2023-12-29T12:27:25;25.23;;;7.82;;
75772;SDS011;64381;0.000;0.000;2023-12-29T12:29:52;24.57;;;7.50;;
75772;SDS011;64381;0.000;0.000;2023-12-29T12:32:21;22.80;;;7.15;;
75772;SDS011;64381;0.000;0.000;2023-12-29T12:34:46;23.70;;;6.97;;
75772;SDS011;64381;0.000;0.000;2023-12-29T12:37:11;26.40;;;7.30;;
75772;SDS011;64381;0.000;0.000;2023-12-29T12:39:42;18.43;;;6.40;;
75772;SDS011;64381;0.000;0.000;2023-12-29T12:42:08;21.45;;;6.72;;
75772;SDS011;64381;0.000;0.000;2023-12-29T12:44:33;19.80;;;7.53;;
75772;SDS011;64381;0.000;0.000;2023-12-29T12:46:59;27.47;;;6.97;;
75772;SDS011;64381;0.000;0.000;2023-12-29T12:49:31;20.23;;;6.22;;
75772;SDS011;64381;0.000;0.000;2023-12-29T12:51:56;23.33;;;6.80;;
75772;SDS011;64381;0.000;0.000;2023-12-29T12:54:21;19.50;;;6.40;;
75772;SDS011;64381;0.000;0.000;2023-12-29T12:56:47;16.85;;;5.80;;
75772;SDS011;64381;0.000;0.000;2023-12-29T12:59:12;23.37;;;6.13;;
75772;SDS011;64381;0.000;0.000;2023-12-29T13:01:39;16.90;;;5.28;;
75772;SDS011;64381;0.000;0.000;2023-12-29T13:04:04;19.23;;;5.60;;
75772;SDS011;64381;0.000;0.000;2023-12-29T13:06:34;12.30;;;4.90;;
75772;SDS011;64381;0.000;0.000;2023-12-29T13:09:04;21.10;;;5.50;;
75772;SDS011;64381;0.000;0.000;2023-12-29T13:11:29;18.03;;;5.20;;
75772;SDS011;64381;0.000;0.000;2023-12-29T13:13:54;22.87;;;5.60;;
75772;SDS011;64381;0.000;0.000;2023-12-29T13:16:27;15.93;;;4.77;;
75772;SDS011;64381;0.000;0.000;2023-12-29T13:19:22;17.67;;;4.97;;
75772;SDS011;64381;0.000;0.000;2023-12-29T13:21:47;19.17;;;5.00;;
75772;SDS011;64381;0.000;0.000;2023-12-29T13:24:16;14.73;;;4.57;;
75772;SDS011;64381;0.000;0.000;2023-12-29T13:26:42;20.17;;;5.40;;
75772;SDS011;64381;0.000;0.000;2023-12-29T13:29:10;13.40;;;4.45;;
75772;SDS011;64381;0.000;0.000;2023-12-29T13:31:37;15.68;;;5.30;;
75772;SDS011;64381;0.000;0.000;2023-12-29T13:34:04;13.55;;;4.70;;
75772;SDS011;64381;0.000;0.000;2023-12-29T13:36:50;18.37;;;4.93;;
75772;SDS011;64381;0.000;0.000;2023-12-29T13:39:38;17.35;;;4.55;;
75772;SDS011;64381;0.000;0.000;2023-12-29T13:42:15;16.38;;;4.97;;
75772;SDS011;64381;0.000;0.000;2023-12-29T13:44:42;11.30;;;4.85;;
75772;SDS011;64381;0.000;0.000;2023-12-29T13:47:09;14.35;;;5.35;;
75772;SDS011;64381;0.000;0.000;2023-12-29T13:49:36;15.03;;;5.00;;
75772;SDS011;64381;0.000;0.000;2023-12-29T13:52:03;16.73;;;5.65;;
75772;SDS011;64381;0.000;0.000;2023-12-29T13:54:28;25.73;;;7.72;;
75772;SDS011;64381;0.000;0.000;2023-12-29T13:56:54;16.10;;;6.63;;
75772;SDS011;64381;0.000;0.000;2023-12-29T13:59:29;21.40;;;6.63;;
75772;SDS011;64381;0.000;0.000;2023-12-29T14:01:55;19.83;;;6.78;;
75772;SDS011;64381;0.000;0.000;2023-12-29T14:04:22;18.35;;;6.75;;
75772;SDS011;64381;0.000;0.000;2023-12-29T14:06:52;18.03;;;7.20;;
75772;SDS011;64381;0.000;0.000;2023-12-29T14:09:19;15.32;;;6.85;;
75772;SDS011;64381;0.000;0.000;2023-12-29T14:11:45;15.93;;;6.53;;
75772;SDS011;64381;0.000;0.000;2023-12-29T14:14:12;19.27;;;6.72;;
75772;SDS011;64381;0.000;0.000;2023-12-29T14:16:40;17.67;;;6.33;;
75772;SDS011;64381;0.000;0.000;2023-12-29T14:19:05;18.55;;;7.38;;
75772;SDS011;64381;0.000;0.000;2023-12-29T14:21:31;17.60;;;8.00;;
75772;SDS011;64381;0.000;0.000;2023-12-29T14:26:32;20.75;;;8.18;;
75772;SDS011;64381;0.000;0.000;2023-12-29T14:31:30;22.57;;;6.43;;
75772;SDS011;64381;0.000;0.000;2023-12-29T14:33:57;17.23;;;5.80;;
75772;SDS011;64381;0.000;0.000;2023-12-29T14:36:23;14.68;;;5.53;;
75772;SDS011;64381;0.000;0.000;2023-12-29T14:38:48;14.27;;;5.30;;
75772;SDS011;64381;0.000;0.000;2023-12-29T14:41:13;14.70;;;5.30;;
75772;SDS011;64381;0.000;0.000;2023-12-29T14:43:38;13.17;;;5.50;;
75772;SDS011;64381;0.000;0.000;2023-12-29T14:46:04;15.43;;;5.57;;
75772;SDS011;64381;0.000;0.000;2023-12-29T14:48:29;16.70;;;5.70;;
75772;SDS011;64381;0.000;0.000;2023-12-29T14:50:54;13.70;;;5.47;;
75772;SDS011;64381;0.000;0.000;2023-12-29T14:53:20;13.40;;;5.37;;
75772;SDS011;64381;0.000;0.000;2023-12-29T14:55:45;14.43;;;5.13;;
75772;SDS011;64381;0.000;0.000;2023-12-29T14:58:10;13.03;;;5.40;;
75772;SDS011;64381;0.000;0.000;2023-12-29T15:00:35;15.87;;;5.10;;
75772;SDS011;64381;0.000;0.000;2023-12-29T15:03:00;15.00;;;5.40;;
75772;SDS011;64381;0.000;0.000;2023-12-29T15:05:26;11.50;;;5.23;;
75772;SDS011;64381;0.000;0.000;2023-12-29T15:07:51;12.00;;;4.87;;
75772;SDS011;64381;0.000;0.000;2023-12-29T15:10:16;12.37;;;4.90;;